Northern Power — A8TL6 — position and weather

sailwx.info

Track history (hours):
 
Tides and Currents Weather Stations Pressure Air Temp Water Temp Dewpoint Dewpoint Depression Visibility Wind Speed Wind Dir Waves Ship Positions

Northern Power

Last reported at 2015-May-02 23:25 UTC. Time now 2015-May-03 11:50 UTC.
Position N 02°46' E 101°08'.

Length 264 m; draft 11.8 m.

Type: Cargo ship. MMSI: 636091835.

Date/timePositionNaut miles runAvg speedWind from/ knotsBaromVisibWave heightAir tempDewpointWater temp
2015-May-02 23:25N 02°46' E 101°08'1817.2
2015-May-02 22:24N 02°37' E 101°23'1717.1
2015-May-02 21:25N 02°28' E 101°37'5718.4
2015-May-02 18:21N 01°53' E 102°22'1518.9
2015-May-02 17:33N 01°46' E 102°36'8416.4
2015-May-02 12:26N 01°13' E 103°52'4 0.4
2015-May-02 03:06N 01°16' E 103°51'0 0.0
2015-May-02 01:33N 01°16' E 103°51'0 0.0
2015-May-01 20:33N 01°16' E 103°51'0 0.0
2015-May-01 17:06N 01°16' E 103°51'0 0.0
2015-May-01 16:27N 01°16' E 103°51'0 0.0
2015-May-01 14:12N 01°16' E 103°51'0 0.0
2015-May-01 13:30N 01°16' E 103°51'0 0.0
2015-May-01 12:18N 01°16' E 103°51'0 0.0
2015-May-01 11:06N 01°16' E 103°51'0 0.0
2015-May-01 09:03N 01°16' E 103°51'0 0.0
2015-May-01 08:03N 01°16' E 103°51'0 0.0
2015-May-01 07:30N 01°16' E 103°51'0 0.0
2015-May-01 06:15N 01°16' E 103°51'0 0.0
2015-May-01 05:30N 01°16' E 103°51'0 0.0
2015-May-01 04:09N 01°16' E 103°51'1 2.3
2015-May-01 03:32N 01°15' E 103°52'4 4.2
2015-May-01 02:32N 01°11' E 103°51'7313.7
2015-Apr-30 21:12N 01°39' E 102°43'1115.9
2015-Apr-30 20:32N 01°44' E 102°33'1616.3
2015-Apr-30 19:32N 01°50' E 102°19'1616.3
2015-Apr-30 18:33N 02°00' E 102°06'6915.8
2015-Apr-30 14:12N 02°43' E 101°12'914.2
2015-Apr-30 13:33N 02°52' E 101°15'1110.9
2015-Apr-30 12:33N 03°01' E 101°21'0 0.2
2015-Apr-30 11:32N 03°01' E 101°21'0 0.0
2015-Apr-30 10:29N 03°01' E 101°21'0 0.0
2015-Apr-30 09:32N 03°01' E 101°21'0 0.0
2015-Apr-30 08:32N 03°01' E 101°21'0 0.0
2015-Apr-30 07:32N 03°01' E 101°21'0 0.0
2015-Apr-30 06:32N 03°01' E 101°21'0 0.0
2015-Apr-30 03:12N 03°01' E 101°21'4 6.5
2015-Apr-30 02:33N 03°05' E 101°19'9 9.1
2015-Apr-30 01:31N 03°12' E 101°13'3 2.9
2015-Apr-30 00:19N 03°15' E 101°11'0 0.0
2015-Apr-29 23:31N 03°15' E 101°11'0 0.1
2015-Apr-29 22:31N 03°15' E 101°11'0 0.1
2015-Apr-29 21:31N 03°15' E 101°11'0 0.1
2015-Apr-29 20:22N 03°15' E 101°11'0 0.0
2015-Apr-29 18:17N 03°15' E 101°11'1 2.0
2015-Apr-29 17:32N 03°16' E 101°10'1717.1
2015-Apr-29 16:33N 03°25' E 100°56'  
Track history (hours):
 
Tides and Currents Weather Stations Pressure Air Temp Water Temp Dewpoint Dewpoint Depression Visibility Wind Speed Wind Dir Waves Ship Positions

Northern Power

Last reported at 2015-May-02 23:25 UTC. Time now 2015-May-03 11:50 UTC.
Position N 02°46' E 101°08'.

Length 264 m; draft 11.8 m.

Type: Cargo ship. MMSI: 636091835.

Date/timePositionNaut miles runAvg speedWind from/ knotsBaromVisibWave heightAir tempDewpointWater temp
2015-May-02 23:25N 02°46' E 101°08'1817.2
2015-May-02 22:24N 02°37' E 101°23'1717.1
2015-May-02 21:25N 02°28' E 101°37'5718.4
2015-May-02 18:21N 01°53' E 102°22'1518.9
2015-May-02 17:33N 01°46' E 102°36'8416.4
2015-May-02 12:26N 01°13' E 103°52'4 0.4
2015-May-02 03:06N 01°16' E 103°51'0 0.0
2015-May-02 01:33N 01°16' E 103°51'0 0.0
2015-May-01 20:33N 01°16' E 103°51'0 0.0
2015-May-01 17:06N 01°16' E 103°51'0 0.0
2015-May-01 16:27N 01°16' E 103°51'0 0.0
2015-May-01 14:12N 01°16' E 103°51'0 0.0
2015-May-01 13:30N 01°16' E 103°51'0 0.0
2015-May-01 12:18N 01°16' E 103°51'0 0.0
2015-May-01 11:06N 01°16' E 103°51'0 0.0
2015-May-01 09:03N 01°16' E 103°51'0 0.0
2015-May-01 08:03N 01°16' E 103°51'0 0.0
2015-May-01 07:30N 01°16' E 103°51'0 0.0
2015-May-01 06:15N 01°16' E 103°51'0 0.0
2015-May-01 05:30N 01°16' E 103°51'0 0.0
2015-May-01 04:09N 01°16' E 103°51'1 2.3
2015-May-01 03:32N 01°15' E 103°52'4 4.2
2015-May-01 02:32N 01°11' E 103°51'7313.7
2015-Apr-30 21:12N 01°39' E 102°43'1115.9
2015-Apr-30 20:32N 01°44' E 102°33'1616.3
2015-Apr-30 19:32N 01°50' E 102°19'1616.3
2015-Apr-30 18:33N 02°00' E 102°06'6915.8
2015-Apr-30 14:12N 02°43' E 101°12'914.2
2015-Apr-30 13:33N 02°52' E 101°15'1110.9
2015-Apr-30 12:33N 03°01' E 101°21'0 0.2
2015-Apr-30 11:32N 03°01' E 101°21'0 0.0
2015-Apr-30 10:29N 03°01' E 101°21'0 0.0
2015-Apr-30 09:32N 03°01' E 101°21'0 0.0
2015-Apr-30 08:32N 03°01' E 101°21'0 0.0
2015-Apr-30 07:32N 03°01' E 101°21'0 0.0
2015-Apr-30 06:32N 03°01' E 101°21'0 0.0
2015-Apr-30 03:12N 03°01' E 101°21'4 6.5
2015-Apr-30 02:33N 03°05' E 101°19'9 9.1
2015-Apr-30 01:31N 03°12' E 101°13'3 2.9
2015-Apr-30 00:19N 03°15' E 101°11'0 0.0
2015-Apr-29 23:31N 03°15' E 101°11'0 0.1
2015-Apr-29 22:31N 03°15' E 101°11'0 0.1
2015-Apr-29 21:31N 03°15' E 101°11'0 0.1
2015-Apr-29 20:22N 03°15' E 101°11'0 0.0
2015-Apr-29 18:17N 03°15' E 101°11'1 2.0
2015-Apr-29 17:32N 03°16' E 101°10'1717.1
2015-Apr-29 16:33N 03°25' E 100°56'  

Dump ship's entire track history